Flight Track Log - Related Links

Times and Time Zones

All times are in EDT time to prevent confusion due to time zone crossing. See the NKS612 flight status page for this flight to view local times or setup timezone preferences in your user account.


Time Position Orientation Groundspeed Altitude Reporting Facility
EDT Latitude Longitude Course Direction KTS MPH feet Rate Location/Type
Thu 07:21:07 AM 44.8880 -93.2370 305° West 147 169 1,200  Level FlightAware ADS-B
Thu 07:21:17 AM 44.8890 -93.2450 280° West 151 174 1,600 1,650 Climbing FlightAware ADS-B
Thu 07:21:47 AM 44.8830 -93.2820 257° West 197 227 2,300 1,300 Climbing FlightAware ADS-B
Thu 07:22:17 AM 44.8710 -93.3230 248° West 261 300 2,900 1,467 Climbing FlightAware ADS-B
Thu 07:22:32 AM 44.8550 -93.3380 214° Southwest 282 325 3,400 2,400 Climbing FlightAware ADS-B
Thu 07:22:47 AM 44.8390 -93.3410 188° South 283 326 4,100 3,750 Climbing FlightAware ADS-B
Thu 07:23:12 AM 44.8040 -93.3290 166° South 286 329 5,900 4,050 Climbing FlightAware ADS-B
Thu 07:23:27 AM 44.7850 -93.3210 163° South 288 331 6,800 3,067 Climbing FlightAware ADS-B
Thu 07:23:57 AM 44.7460 -93.3020 161° South 306 352 8,200 2,850 Climbing FlightAware ADS-B
Thu 07:24:07 AM 44.7320 -93.2950 160° South 310 357 8,700 4,036 Climbing FlightAware ADS-B
Thu 07:24:52 AM 44.6740 -93.2680 162° South 285 328 11,900 3,812 Climbing FlightAware ADS-B
Thu 07:25:32 AM 44.6260 -93.2400 157° South 279 321 14,100 2,824 Climbing FlightAware ADS-B
Thu 07:26:17 AM 44.5710 -93.2050 156° South 294 338 15,900 1,835 Climbing FlightAware ADS-B
Thu 07:26:57 AM 44.5210 -93.1680 152° Southeast 330 380 16,700 1,425 Climbing FlightAware ADS-B
Thu 07:27:37 AM 44.4650 -93.1240 151° Southeast 351 404 17,800 2,188 Climbing FlightAware ADS-B
Thu 07:28:22 AM 44.4010 -93.0730 150° Southeast 350 403 19,800 2,400 Climbing FlightAware ADS-B
Thu 07:29:02 AM 44.3450 -93.0290 151° Southeast 352 405 21,200 2,188 Climbing FlightAware ADS-B
Thu 07:29:47 AM 44.2820 -92.9800 151° Southeast 349 402 22,900 2,259 Climbing FlightAware ADS-B
Thu 07:30:27 AM 44.2270 -92.9380 151° Southeast 343 395 24,400 1,950 Climbing FlightAware ADS-B
Thu 07:31:07 AM 44.1700 -92.8940 151° Southeast 350 403 25,500 1,553 Climbing FlightAware ADS-B
Thu 07:31:52 AM 44.1050 -92.8430 151° Southeast 358 412 26,600 1,412 Climbing FlightAware ADS-B
Thu 07:32:32 AM 44.0460 -92.7980 151° Southeast 363 418 27,500 1,200 Climbing FlightAware ADS-B
Thu 07:33:12 AM 43.9860 -92.7520 151° Southeast 373 429 28,200 1,129 Climbing FlightAware ADS-B
Thu 07:33:57 AM 43.9190 -92.7000 151° Southeast 380 437 29,100 1,129 Climbing FlightAware ADS-B
Thu 07:34:37 AM 43.8600 -92.6460 147° Southeast 392 451 29,800 776 Climbing FlightAware ADS-B
Thu 07:35:22 AM 43.7960 -92.5630 137° Southeast 419 482 30,200 776 Climbing FlightAware ADS-B
Thu 07:36:02 AM 43.7490 -92.4780 127° Southeast 434 499 30,900 600 Climbing FlightAware ADS-B
Thu 07:36:42 AM 43.7110 -92.3790 118° Southeast 436 502 31,000 71 Climbing FlightAware ADS-B
Thu 07:37:27 AM 43.6730 -92.2650 115° Southeast 440 506 31,000  Level FlightAware ADS-B
Thu 07:38:07 AM 43.6390 -92.1640 115° Southeast 443 510 31,000  Level FlightAware ADS-B
Thu 07:38:52 AM 43.6000 -92.0460 114° Southeast 442 509 31,000  Level FlightAware ADS-B
Thu 07:39:32 AM 43.5650 -91.9420 115° Southeast 442 509 31,000  Level FlightAware ADS-B
Thu 07:40:12 AM 43.5310 -91.8410 115° Southeast 444 511 31,000  Level FlightAware ADS-B
Thu 07:40:57 AM 43.4920 -91.7270 115° Southeast 449 517 31,000  Level FlightAware ADS-B
Thu 07:41:37 AM 43.4570 -91.6240 115° Southeast 451 519 31,000  Level FlightAware ADS-B
Thu 07:42:22 AM 43.4160 -91.5050 115° Southeast 451 519 31,000  Level FlightAware ADS-B
Thu 07:43:02 AM 43.3810 -91.4000 115° Southeast 455 524 31,000  Level FlightAware ADS-B
Thu 07:43:42 AM 43.3450 -91.2970 116° Southeast 455 524 31,000  Level FlightAware ADS-B
Thu 07:44:27 AM 43.3080 -91.1810 114° Southeast 457 526 31,000 -635 Level FlightAware ADS-B
Thu 07:45:07 AM 43.2900 -91.0680 102° East 453 521 30,100 -1,725 Descending FlightAware ADS-B
Thu 07:45:47 AM 43.2740 -90.9550 101° East 446 513 28,700 -1,976 Descending FlightAware ADS-B
Thu 07:46:32 AM 43.2350 -90.8420 115° Southeast 420 483 27,300 -2,047 Descending FlightAware ADS-B
Thu 07:47:12 AM 43.2000 -90.7490 117° Southeast 419 482 25,800 -1,765 Descending FlightAware ADS-B
Thu 07:47:57 AM 43.1610 -90.6460 117° Southeast 401 461 24,800 -1,271 Descending FlightAware ADS-B
Thu 07:48:37 AM 43.1290 -90.5610 117° Southeast 389 448 24,000 -565 Descending FlightAware ADS-B
Thu 07:49:22 AM 43.0900 -90.4600 118° Southeast 391 450 24,000  Level FlightAware ADS-B
Thu 07:50:07 AM 43.0520 -90.3620 118° Southeast 392 451 24,000  Level FlightAware ADS-B
Thu 07:50:47 AM 43.0190 -90.2750 117° Southeast 393 452 24,000  Level FlightAware ADS-B
Thu 07:51:27 AM 42.9850 -90.1880 118° Southeast 393 452 24,000  Level FlightAware ADS-B
Thu 07:52:07 AM 42.9510 -90.1000 118° Southeast 392 451 24,000  Level FlightAware ADS-B
Thu 07:52:52 AM 42.9120 -89.9990 118° Southeast 395 455 24,000  Level FlightAware ADS-B
Thu 07:53:37 AM 42.8740 -89.9020 118° Southeast 395 455 24,000 -71 Level FlightAware ADS-B
Thu 07:54:17 AM 42.8390 -89.8140 118° Southeast 397 457 23,900 -600 Descending FlightAware ADS-B
Thu 07:54:57 AM 42.8050 -89.7260 118° Southeast 393 452 23,200 -988 Descending FlightAware ADS-B
Thu 07:55:42 AM 42.7660 -89.6270 118° Southeast 386 444 22,500 -1,200 Descending FlightAware ADS-B
Thu 07:56:22 AM 42.7320 -89.5420 119° Southeast 382 440 21,500 -1,725 Descending FlightAware ADS-B
Thu 07:57:02 AM 42.6990 -89.4580 118° Southeast 377 434 20,200 -1,835 Descending FlightAware ADS-B
Thu 07:57:47 AM 42.6630 -89.3680 119° Southeast 370 426 18,900 -1,835 Descending FlightAware ADS-B
Thu 07:58:27 AM 42.6310 -89.2870 118° Southeast 365 420 17,600 -1,976 Descending FlightAware ADS-B
Thu 07:59:12 AM 42.5950 -89.1970 118° Southeast 357 411 16,100 -1,906 Descending FlightAware ADS-B
Thu 07:59:52 AM 42.5630 -89.1180 119° Southeast 344 396 14,900 -1,500 Descending FlightAware ADS-B
Thu 08:00:32 AM 42.5390 -89.0400 113° Southeast 328 377 14,100 -1,129 Descending FlightAware ADS-B
Thu 08:01:17 AM 42.5150 -88.9590 112° Southeast 317 365 13,300 -1,059 Descending FlightAware ADS-B
Thu 08:01:57 AM 42.4920 -88.8850 113° Southeast 311 358 12,600 -1,059 Descending FlightAware ADS-B
Thu 08:02:42 AM 42.4680 -88.8060 112° Southeast 304 350 11,800 -1,059 Descending FlightAware ADS-B
Thu 08:03:22 AM 42.4480 -88.7390 112° Southeast 291 335 11,100 -975 Descending FlightAware ADS-B
Thu 08:04:02 AM 42.4270 -88.6700 112° Southeast 279 321 10,500 -975 Descending FlightAware ADS-B
Thu 08:04:42 AM 42.4080 -88.6070 112° Southeast 285 328 9,800 -1,029 Descending FlightAware ADS-B
Thu 08:05:12 AM 42.3930 -88.5580 112° Southeast 284 327 9,300 -982 Descending FlightAware ADS-B
Thu 08:05:37 AM 42.3800 -88.5150 112° Southeast 278 320 8,900 -545 Descending FlightAware ADS-B
Thu 08:06:07 AM 42.3660 -88.4700 113° Southeast 278 320 8,800 -109 Descending FlightAware ADS-B
Thu 08:06:32 AM 42.3530 -88.4260 112° Southeast 277 319 8,800  Level FlightAware ADS-B
Thu 08:07:02 AM 42.3370 -88.3820 116° Southeast 274 315 8,800 -300 Level FlightAware ADS-B
Thu 08:07:32 AM 42.3120 -88.3510 137° Southeast 264 304 8,500 -1,050 Descending FlightAware ADS-B
Thu 08:07:42 AM 42.2970 -88.3470 169° South 261 300 8,100 -1,800 Descending FlightAware ADS-B
Thu 08:08:12 AM 42.2610 -88.3440 176° South 261 300 7,300 -1,300 Descending FlightAware ADS-B
Thu 08:08:42 AM 42.2250 -88.3400 175° South 254 292 6,800 -655 Descending FlightAware ADS-B
Thu 08:09:07 AM 42.1940 -88.3370 176° South 263 303 6,700  Descending FlightAware ADS-B
Thu 08:09:37 AM 42.1580 -88.3340 176° South 254 292 6,800 -218 Climbing FlightAware ADS-B
Thu 08:10:02 AM 42.1310 -88.3310 175° South 231 266 6,500 -873 Descending FlightAware ADS-B
Thu 08:10:32 AM 42.1010 -88.3280 176° South 215 247 6,000 -1,300 Descending FlightAware ADS-B
Thu 08:11:02 AM 42.0700 -88.3240 175° South 214 246 5,200 -1,309 Descending FlightAware ADS-B
Thu 08:11:27 AM 42.0460 -88.3220 176° South 209 241 4,800 -545 Descending FlightAware ADS-B
Thu 08:11:57 AM 42.0200 -88.3190 175° South 177 204 4,700 -109 Descending FlightAware ADS-B
Thu 08:12:22 AM 42.0000 -88.3150 172° South 170 196 4,700  Level FlightAware ADS-B
Thu 08:12:37 AM 41.9910 -88.3030 135° Southeast 179 206 4,700 -133 Level FlightAware ADS-B
Thu 08:13:07 AM 41.9820 -88.2740 113° Southeast 183 211 4,600 -655 Descending FlightAware ADS-B
Thu 08:13:32 AM 41.9740 -88.2450 110° East 184 212 4,100 -982 Descending FlightAware ADS-B
Thu 08:14:02 AM 41.9690 -88.2120 102° East 187 215 3,700 -436 Descending FlightAware ADS-B
Thu 08:14:27 AM 41.9680 -88.1810 92° East 191 220 3,700 -109 Level FlightAware ADS-B
Thu 08:14:57 AM 41.9680 -88.1480 90° East 191 220 3,600 -655 Descending FlightAware ADS-B
Thu 08:15:22 AM 41.9680 -88.1180 90° East 186 214 3,100 -1,091 Descending FlightAware ADS-B
Thu 08:15:52 AM 41.9690 -88.0830 88° East 186 214 2,600 -880 Descending FlightAware ADS-B
Thu 08:16:37 AM 41.9690 -88.0330 90° East 170 196 2,000 -847 Descending FlightAware ADS-B
Thu 08:17:17 AM 41.9690 -87.9980 90° East 129 148 1,400 -840 Descending FlightAware ADS-B
Thu 08:17:27 AM 41.9690 -87.9910 90° East 128 147 1,300 -600 Descending FlightAware ADS-B
Thu 08:17:57 AM 41.9690 -87.9690 90° East 128 147 1,000 -720 Descending FlightAware ADS-B
Thu 08:18:17 AM 41.9690 -87.9500 90° East 128 147 700 -514 Descending FlightAware ADS-B
Thu 08:19:07 AM 41.9690 -87.9110 90° East 132 152 400 -360 Descending FlightAware ADS-B

Login

Don't have an account? Register now (free) for customized features, flight alerts, and more!